sensor_id;sensor_type;location;lat;lon;timestamp;P1;durP1;ratioP1;P2;durP2;ratioP2
26223;SDS011;14820;48.682;8.890;2023-04-03T00:00:03;5.15;;;3.15;;
26223;SDS011;14820;48.682;8.890;2023-04-03T00:02:30;3.33;;;2.90;;
26223;SDS011;14820;48.682;8.890;2023-04-03T00:04:55;6.47;;;3.22;;
26223;SDS011;14820;48.682;8.890;2023-04-03T00:07:21;5.25;;;3.03;;
26223;SDS011;14820;48.682;8.890;2023-04-03T00:09:46;4.38;;;3.05;;
26223;SDS011;14820;48.682;8.890;2023-04-03T00:12:12;4.97;;;2.88;;
26223;SDS011;14820;48.682;8.890;2023-04-03T00:14:38;6.05;;;2.88;;
26223;SDS011;14820;48.682;8.890;2023-04-03T00:17:04;7.05;;;3.03;;
26223;SDS011;14820;48.682;8.890;2023-04-03T00:19:30;4.35;;;2.67;;
26223;SDS011;14820;48.682;8.890;2023-04-03T00:21:55;5.40;;;3.00;;
26223;SDS011;14820;48.682;8.890;2023-04-03T00:24:21;3.83;;;2.92;;
26223;SDS011;14820;48.682;8.890;2023-04-03T00:26:47;5.65;;;3.08;;
26223;SDS011;14820;48.682;8.890;2023-04-03T00:29:12;6.00;;;3.30;;
26223;SDS011;14820;48.682;8.890;2023-04-03T00:31:38;6.20;;;2.85;;
26223;SDS011;14820;48.682;8.890;2023-04-03T00:34:04;4.97;;;3.47;;
26223;SDS011;14820;48.682;8.890;2023-04-03T00:36:30;5.85;;;3.20;;
26223;SDS011;14820;48.682;8.890;2023-04-03T00:38:56;5.63;;;2.97;;
26223;SDS011;14820;48.682;8.890;2023-04-03T00:41:21;9.32;;;3.33;;
26223;SDS011;14820;48.682;8.890;2023-04-03T00:43:47;4.38;;;3.10;;
26223;SDS011;14820;48.682;8.890;2023-04-03T00:46:13;6.95;;;2.80;;
26223;SDS011;14820;48.682;8.890;2023-04-03T00:48:39;5.95;;;2.95;;
26223;SDS011;14820;48.682;8.890;2023-04-03T00:51:15;4.78;;;3.10;;
26223;SDS011;14820;48.682;8.890;2023-04-03T00:53:49;9.90;;;3.60;;
26223;SDS011;14820;48.682;8.890;2023-04-03T00:56:19;3.97;;;2.70;;
26223;SDS011;14820;48.682;8.890;2023-04-03T00:58:49;4.32;;;2.95;;
26223;SDS011;14820;48.682;8.890;2023-04-03T01:01:21;4.30;;;2.97;;
26223;SDS011;14820;48.682;8.890;2023-04-03T01:03:50;4.40;;;3.15;;
26223;SDS011;14820;48.682;8.890;2023-04-03T01:06:16;4.88;;;3.05;;
26223;SDS011;14820;48.682;8.890;2023-04-03T01:08:45;4.07;;;2.90;;
26223;SDS011;14820;48.682;8.890;2023-04-03T01:11:14;3.97;;;2.88;;
26223;SDS011;14820;48.682;8.890;2023-04-03T01:13:40;4.40;;;2.92;;
26223;SDS011;14820;48.682;8.890;2023-04-03T01:16:06;4.80;;;3.38;;
26223;SDS011;14820;48.682;8.890;2023-04-03T01:18:32;6.45;;;3.05;;
26223;SDS011;14820;48.682;8.890;2023-04-03T01:26:24;3.90;;;3.00;;
26223;SDS011;14820;48.682;8.890;2023-04-03T01:28:50;5.47;;;3.15;;
26223;SDS011;14820;48.682;8.890;2023-04-03T01:31:20;5.65;;;3.38;;
26223;SDS011;14820;48.682;8.890;2023-04-03T01:33:52;5.35;;;2.97;;
26223;SDS011;14820;48.682;8.890;2023-04-03T01:36:26;4.20;;;3.20;;
26223;SDS011;14820;48.682;8.890;2023-04-03T01:38:54;7.43;;;3.33;;
26223;SDS011;14820;48.682;8.890;2023-04-03T01:41:21;5.53;;;3.13;;
26223;SDS011;14820;48.682;8.890;2023-04-03T01:43:47;7.78;;;3.45;;
26223;SDS011;14820;48.682;8.890;2023-04-03T01:46:14;5.63;;;3.25;;
26223;SDS011;14820;48.682;8.890;2023-04-03T01:48:43;4.63;;;3.30;;
26223;SDS011;14820;48.682;8.890;2023-04-03T01:51:10;6.32;;;3.40;;
26223;SDS011;14820;48.682;8.890;2023-04-03T01:53:35;4.22;;;3.17;;
26223;SDS011;14820;48.682;8.890;2023-04-03T01:56:01;5.47;;;3.15;;
26223;SDS011;14820;48.682;8.890;2023-04-03T01:58:27;5.00;;;3.40;;
26223;SDS011;14820;48.682;8.890;2023-04-03T02:00:52;5.10;;;3.00;;
26223;SDS011;14820;48.682;8.890;2023-04-03T02:03:19;4.75;;;2.90;;
26223;SDS011;14820;48.682;8.890;2023-04-03T02:05:45;4.28;;;3.15;;
26223;SDS011;14820;48.682;8.890;2023-04-03T02:08:10;6.57;;;3.05;;
26223;SDS011;14820;48.682;8.890;2023-04-03T02:10:36;5.93;;;3.60;;
26223;SDS011;14820;48.682;8.890;2023-04-03T02:13:02;5.28;;;3.58;;
26223;SDS011;14820;48.682;8.890;2023-04-03T02:15:28;5.18;;;2.85;;
26223;SDS011;14820;48.682;8.890;2023-04-03T02:17:53;7.88;;;3.30;;
26223;SDS011;14820;48.682;8.890;2023-04-03T02:20:19;6.05;;;3.50;;
26223;SDS011;14820;48.682;8.890;2023-04-03T02:22:45;5.75;;;3.40;;
26223;SDS011;14820;48.682;8.890;2023-04-03T02:25:11;5.35;;;3.30;;
26223;SDS011;14820;48.682;8.890;2023-04-03T02:27:37;6.05;;;3.05;;
26223;SDS011;14820;48.682;8.890;2023-04-03T02:30:03;5.25;;;3.10;;
26223;SDS011;14820;48.682;8.890;2023-04-03T02:32:30;6.47;;;3.15;;
26223;SDS011;14820;48.682;8.890;2023-04-03T02:34:56;6.32;;;3.22;;
26223;SDS011;14820;48.682;8.890;2023-04-03T02:37:22;4.45;;;3.00;;
26223;SDS011;14820;48.682;8.890;2023-04-03T02:39:47;4.03;;;3.10;;
26223;SDS011;14820;48.682;8.890;2023-04-03T02:42:13;6.35;;;3.25;;
26223;SDS011;14820;48.682;8.890;2023-04-03T02:44:39;5.00;;;2.83;;
26223;SDS011;14820;48.682;8.890;2023-04-03T02:47:05;4.78;;;3.00;;
26223;SDS011;14820;48.682;8.890;2023-04-03T02:49:31;5.53;;;3.58;;
26223;SDS011;14820;48.682;8.890;2023-04-03T02:51:57;7.93;;;3.78;;
26223;SDS011;14820;48.682;8.890;2023-04-03T02:54:22;6.55;;;3.03;;
26223;SDS011;14820;48.682;8.890;2023-04-03T02:56:49;5.30;;;2.90;;
26223;SDS011;14820;48.682;8.890;2023-04-03T02:59:15;7.40;;;3.15;;
26223;SDS011;14820;48.682;8.890;2023-04-03T03:01:41;8.00;;;3.72;;
26223;SDS011;14820;48.682;8.890;2023-04-03T03:04:06;4.43;;;3.17;;
26223;SDS011;14820;48.682;8.890;2023-04-03T03:06:32;6.05;;;3.45;;
26223;SDS011;14820;48.682;8.890;2023-04-03T03:08:58;5.22;;;3.15;;
26223;SDS011;14820;48.682;8.890;2023-04-03T03:11:23;6.53;;;3.30;;
26223;SDS011;14820;48.682;8.890;2023-04-03T03:13:50;3.90;;;2.92;;
26223;SDS011;14820;48.682;8.890;2023-04-03T03:16:16;3.75;;;3.00;;
26223;SDS011;14820;48.682;8.890;2023-04-03T03:18:41;4.72;;;3.13;;
26223;SDS011;14820;48.682;8.890;2023-04-03T03:21:08;5.30;;;3.25;;
26223;SDS011;14820;48.682;8.890;2023-04-03T03:23:35;5.03;;;3.20;;
26223;SDS011;14820;48.682;8.890;2023-04-03T03:26:02;4.20;;;3.00;;
26223;SDS011;14820;48.682;8.890;2023-04-03T03:28:32;5.65;;;3.33;;
26223;SDS011;14820;48.682;8.890;2023-04-03T03:30:58;6.10;;;3.40;;
26223;SDS011;14820;48.682;8.890;2023-04-03T03:33:24;4.63;;;3.30;;
26223;SDS011;14820;48.682;8.890;2023-04-03T03:35:51;4.95;;;3.40;;
26223;SDS011;14820;48.682;8.890;2023-04-03T03:38:18;4.20;;;2.97;;
26223;SDS011;14820;48.682;8.890;2023-04-03T03:40:44;4.97;;;3.22;;
26223;SDS011;14820;48.682;8.890;2023-04-03T03:43:09;4.32;;;3.28;;
26223;SDS011;14820;48.682;8.890;2023-04-03T03:45:35;6.82;;;3.17;;
26223;SDS011;14820;48.682;8.890;2023-04-03T03:48:01;5.35;;;3.08;;
26223;SDS011;14820;48.682;8.890;2023-04-03T03:50:27;4.57;;;3.05;;
26223;SDS011;14820;48.682;8.890;2023-04-03T03:52:53;7.20;;;3.00;;
26223;SDS011;14820;48.682;8.890;2023-04-03T03:55:18;4.05;;;3.10;;
26223;SDS011;14820;48.682;8.890;2023-04-03T03:57:44;3.75;;;3.10;;
26223;SDS011;14820;48.682;8.890;2023-04-03T04:00:10;6.28;;;3.17;;
26223;SDS011;14820;48.682;8.890;2023-04-03T04:02:36;3.97;;;2.95;;
26223;SDS011;14820;48.682;8.890;2023-04-03T04:05:02;4.93;;;3.40;;
26223;SDS011;14820;48.682;8.890;2023-04-03T04:07:28;5.80;;;3.70;;
26223;SDS011;14820;48.682;8.890;2023-04-03T04:09:54;8.13;;;3.85;;
26223;SDS011;14820;48.682;8.890;2023-04-03T04:12:20;6.00;;;3.47;;
26223;SDS011;14820;48.682;8.890;2023-04-03T04:14:46;5.35;;;3.45;;
26223;SDS011;14820;48.682;8.890;2023-04-03T04:17:12;6.07;;;3.33;;
26223;SDS011;14820;48.682;8.890;2023-04-03T04:19:39;8.25;;;3.92;;
26223;SDS011;14820;48.682;8.890;2023-04-03T04:22:05;4.97;;;3.67;;
26223;SDS011;14820;48.682;8.890;2023-04-03T04:24:30;5.57;;;3.22;;
26223;SDS011;14820;48.682;8.890;2023-04-03T04:26:56;5.45;;;3.53;;
26223;SDS011;14820;48.682;8.890;2023-04-03T04:29:22;6.72;;;3.40;;
26223;SDS011;14820;48.682;8.890;2023-04-03T04:31:47;6.82;;;3.63;;
26223;SDS011;14820;48.682;8.890;2023-04-03T04:34:13;6.10;;;4.38;;
26223;SDS011;14820;48.682;8.890;2023-04-03T04:36:39;6.13;;;4.20;;
26223;SDS011;14820;48.682;8.890;2023-04-03T04:39:05;5.57;;;3.55;;
26223;SDS011;14820;48.682;8.890;2023-04-03T04:41:31;6.40;;;3.85;;
26223;SDS011;14820;48.682;8.890;2023-04-03T04:43:57;5.30;;;4.18;;
26223;SDS011;14820;48.682;8.890;2023-04-03T04:46:23;8.30;;;3.50;;
26223;SDS011;14820;48.682;8.890;2023-04-03T04:48:48;6.00;;;3.13;;
26223;SDS011;14820;48.682;8.890;2023-04-03T04:51:14;7.03;;;3.28;;
26223;SDS011;14820;48.682;8.890;2023-04-03T04:53:40;5.45;;;3.60;;
26223;SDS011;14820;48.682;8.890;2023-04-03T04:56:06;7.10;;;3.35;;
26223;SDS011;14820;48.682;8.890;2023-04-03T04:58:33;5.22;;;3.17;;
26223;SDS011;14820;48.682;8.890;2023-04-03T05:00:59;7.03;;;3.05;;
26223;SDS011;14820;48.682;8.890;2023-04-03T05:03:29;4.57;;;3.10;;
26223;SDS011;14820;48.682;8.890;2023-04-03T05:05:55;3.67;;;2.90;;
26223;SDS011;14820;48.682;8.890;2023-04-03T05:08:21;5.28;;;2.90;;
26223;SDS011;14820;48.682;8.890;2023-04-03T05:10:47;7.10;;;3.20;;
26223;SDS011;14820;48.682;8.890;2023-04-03T05:13:13;5.80;;;3.45;;
26223;SDS011;14820;48.682;8.890;2023-04-03T05:15:39;4.45;;;2.72;;
26223;SDS011;14820;48.682;8.890;2023-04-03T05:18:05;4.20;;;3.15;;
26223;SDS011;14820;48.682;8.890;2023-04-03T05:20:31;5.63;;;3.30;;
26223;SDS011;14820;48.682;8.890;2023-04-03T05:22:57;4.28;;;3.13;;
26223;SDS011;14820;48.682;8.890;2023-04-03T05:25:23;5.43;;;3.22;;
26223;SDS011;14820;48.682;8.890;2023-04-03T05:27:50;4.95;;;3.20;;
26223;SDS011;14820;48.682;8.890;2023-04-03T05:30:16;6.60;;;3.17;;
26223;SDS011;14820;48.682;8.890;2023-04-03T05:32:42;3.58;;;2.88;;
26223;SDS011;14820;48.682;8.890;2023-04-03T05:35:08;4.53;;;3.13;;
26223;SDS011;14820;48.682;8.890;2023-04-03T05:37:34;5.55;;;3.20;;
26223;SDS011;14820;48.682;8.890;2023-04-03T05:40:01;6.22;;;3.33;;
26223;SDS011;14820;48.682;8.890;2023-04-03T05:42:27;4.63;;;3.25;;
26223;SDS011;14820;48.682;8.890;2023-04-03T05:44:53;5.00;;;2.85;;
26223;SDS011;14820;48.682;8.890;2023-04-03T05:47:18;5.90;;;2.97;;
26223;SDS011;14820;48.682;8.890;2023-04-03T05:49:44;7.63;;;3.10;;
26223;SDS011;14820;48.682;8.890;2023-04-03T05:52:19;4.00;;;2.75;;
26223;SDS011;14820;48.682;8.890;2023-04-03T05:54:51;3.95;;;2.90;;
26223;SDS011;14820;48.682;8.890;2023-04-03T05:57:17;5.38;;;2.65;;
26223;SDS011;14820;48.682;8.890;2023-04-03T05:59:45;4.75;;;2.55;;
26223;SDS011;14820;48.682;8.890;2023-04-03T06:02:12;2.78;;;2.33;;
26223;SDS011;14820;48.682;8.890;2023-04-03T06:04:40;4.93;;;2.72;;
26223;SDS011;14820;48.682;8.890;2023-04-03T06:07:06;3.88;;;2.40;;
26223;SDS011;14820;48.682;8.890;2023-04-03T06:09:35;3.70;;;2.60;;
26223;SDS011;14820;48.682;8.890;2023-04-03T06:12:00;7.22;;;2.50;;
26223;SDS011;14820;48.682;8.890;2023-04-03T06:14:26;4.00;;;2.30;;
26223;SDS011;14820;48.682;8.890;2023-04-03T06:16:52;6.15;;;2.58;;
26223;SDS011;14820;48.682;8.890;2023-04-03T06:19:19;5.32;;;2.47;;
26223;SDS011;14820;48.682;8.890;2023-04-03T06:21:45;4.90;;;2.58;;
26223;SDS011;14820;48.682;8.890;2023-04-03T06:24:15;3.90;;;2.50;;
26223;SDS011;14820;48.682;8.890;2023-04-03T06:26:46;5.10;;;2.50;;
26223;SDS011;14820;48.682;8.890;2023-04-03T06:29:13;7.43;;;2.85;;
26223;SDS011;14820;48.682;8.890;2023-04-03T06:31:39;5.07;;;2.63;;
26223;SDS011;14820;48.682;8.890;2023-04-03T06:34:08;5.22;;;2.83;;
26223;SDS011;14820;48.682;8.890;2023-04-03T06:36:37;3.97;;;2.35;;
26223;SDS011;14820;48.682;8.890;2023-04-03T06:39:04;6.32;;;3.13;;
26223;SDS011;14820;48.682;8.890;2023-04-03T06:41:30;4.75;;;2.92;;
26223;SDS011;14820;48.682;8.890;2023-04-03T06:43:56;5.75;;;2.80;;
26223;SDS011;14820;48.682;8.890;2023-04-03T06:46:23;4.30;;;2.53;;
26223;SDS011;14820;48.682;8.890;2023-04-03T06:48:49;4.40;;;2.80;;
26223;SDS011;14820;48.682;8.890;2023-04-03T06:51:19;2.90;;;2.53;;
26223;SDS011;14820;48.682;8.890;2023-04-03T06:53:48;4.63;;;2.90;;
26223;SDS011;14820;48.682;8.890;2023-04-03T06:56:15;3.28;;;2.83;;
26223;SDS011;14820;48.682;8.890;2023-04-03T06:58:42;4.95;;;2.67;;
26223;SDS011;14820;48.682;8.890;2023-04-03T07:01:09;4.55;;;2.90;;
26223;SDS011;14820;48.682;8.890;2023-04-03T07:03:37;4.40;;;2.67;;
26223;SDS011;14820;48.682;8.890;2023-04-03T07:06:04;4.68;;;2.50;;
26223;SDS011;14820;48.682;8.890;2023-04-03T07:08:30;5.25;;;2.88;;
26223;SDS011;14820;48.682;8.890;2023-04-03T07:10:57;3.75;;;2.55;;
26223;SDS011;14820;48.682;8.890;2023-04-03T07:13:22;5.00;;;2.97;;
26223;SDS011;14820;48.682;8.890;2023-04-03T07:15:48;5.35;;;2.70;;
26223;SDS011;14820;48.682;8.890;2023-04-03T07:18:14;4.72;;;2.67;;
26223;SDS011;14820;48.682;8.890;2023-04-03T07:20:39;5.05;;;2.60;;
26223;SDS011;14820;48.682;8.890;2023-04-03T07:23:05;4.80;;;2.70;;
26223;SDS011;14820;48.682;8.890;2023-04-03T07:25:31;2.85;;;2.17;;
26223;SDS011;14820;48.682;8.890;2023-04-03T07:27:58;3.95;;;2.67;;
26223;SDS011;14820;48.682;8.890;2023-04-03T07:30:24;5.07;;;2.50;;
26223;SDS011;14820;48.682;8.890;2023-04-03T07:32:50;3.80;;;2.50;;
26223;SDS011;14820;48.682;8.890;2023-04-03T07:35:16;6.15;;;2.67;;
26223;SDS011;14820;48.682;8.890;2023-04-03T07:37:42;4.40;;;2.40;;
26223;SDS011;14820;48.682;8.890;2023-04-03T07:40:08;7.80;;;2.60;;
26223;SDS011;14820;48.682;8.890;2023-04-03T07:42:34;4.85;;;2.75;;
26223;SDS011;14820;48.682;8.890;2023-04-03T07:45:01;5.10;;;3.28;;
26223;SDS011;14820;48.682;8.890;2023-04-03T07:47:30;4.63;;;2.78;;
26223;SDS011;14820;48.682;8.890;2023-04-03T07:49:56;7.38;;;3.00;;
26223;SDS011;14820;48.682;8.890;2023-04-03T07:52:23;5.93;;;2.72;;
26223;SDS011;14820;48.682;8.890;2023-04-03T07:54:49;6.55;;;2.92;;
26223;SDS011;14820;48.682;8.890;2023-04-03T07:57:14;8.73;;;2.65;;
26223;SDS011;14820;48.682;8.890;2023-04-03T07:59:41;5.38;;;2.78;;
26223;SDS011;14820;48.682;8.890;2023-04-03T08:02:11;5.50;;;2.80;;
26223;SDS011;14820;48.682;8.890;2023-04-03T08:04:37;3.47;;;2.40;;
26223;SDS011;14820;48.682;8.890;2023-04-03T08:07:03;4.43;;;2.67;;
26223;SDS011;14820;48.682;8.890;2023-04-03T08:09:29;6.03;;;2.90;;
26223;SDS011;14820;48.682;8.890;2023-04-03T08:11:55;9.23;;;2.75;;
26223;SDS011;14820;48.682;8.890;2023-04-03T08:14:20;5.07;;;2.67;;
26223;SDS011;14820;48.682;8.890;2023-04-03T08:16:47;5.03;;;2.70;;
26223;SDS011;14820;48.682;8.890;2023-04-03T08:19:13;8.38;;;2.75;;
26223;SDS011;14820;48.682;8.890;2023-04-03T08:21:41;6.95;;;3.10;;
26223;SDS011;14820;48.682;8.890;2023-04-03T08:24:07;6.70;;;2.75;;
26223;SDS011;14820;48.682;8.890;2023-04-03T08:26:34;6.00;;;2.80;;
26223;SDS011;14820;48.682;8.890;2023-04-03T08:29:00;3.95;;;2.50;;
26223;SDS011;14820;48.682;8.890;2023-04-03T08:31:26;4.63;;;2.38;;
26223;SDS011;14820;48.682;8.890;2023-04-03T08:33:51;7.82;;;2.78;;
26223;SDS011;14820;48.682;8.890;2023-04-03T08:36:27;4.18;;;2.30;;
26223;SDS011;14820;48.682;8.890;2023-04-03T08:38:54;4.63;;;2.50;;
26223;SDS011;14820;48.682;8.890;2023-04-03T08:49:54;3.42;;;2.60;;
26223;SDS011;14820;48.682;8.890;2023-04-03T08:55:39;5.82;;;2.97;;
26223;SDS011;14820;48.682;8.890;2023-04-03T09:00:30;4.10;;;2.60;;
26223;SDS011;14820;48.682;8.890;2023-04-03T09:03:19;4.90;;;2.40;;
26223;SDS011;14820;48.682;8.890;2023-04-03T09:11:05;4.95;;;2.60;;
26223;SDS011;14820;48.682;8.890;2023-04-03T09:16:32;6.93;;;2.47;;
26223;SDS011;14820;48.682;8.890;2023-04-03T09:21:39;5.75;;;2.78;;
26223;SDS011;14820;48.682;8.890;2023-04-03T09:24:09;5.68;;;2.50;;
26223;SDS011;14820;48.682;8.890;2023-04-03T09:26:45;6.85;;;2.63;;
26223;SDS011;14820;48.682;8.890;2023-04-03T09:29:26;7.68;;;2.85;;
26223;SDS011;14820;48.682;8.890;2023-04-03T09:32:34;4.88;;;2.47;;
26223;SDS011;14820;48.682;8.890;2023-04-03T09:35:03;5.28;;;2.45;;
26223;SDS011;14820;48.682;8.890;2023-04-03T09:37:40;4.88;;;2.65;;
26223;SDS011;14820;48.682;8.890;2023-04-03T09:42:58;5.25;;;2.60;;
26223;SDS011;14820;48.682;8.890;2023-04-03T09:45:27;4.30;;;2.40;;
26223;SDS011;14820;48.682;8.890;2023-04-03T09:53:42;5.82;;;2.85;;
26223;SDS011;14820;48.682;8.890;2023-04-03T09:58:41;6.45;;;3.00;;
26223;SDS011;14820;48.682;8.890;2023-04-03T10:06:39;7.35;;;2.80;;
26223;SDS011;14820;48.682;8.890;2023-04-03T10:14:25;6.15;;;2.45;;
26223;SDS011;14820;48.682;8.890;2023-04-03T10:19:33;7.43;;;2.78;;
26223;SDS011;14820;48.682;8.890;2023-04-03T10:22:12;4.07;;;2.17;;
26223;SDS011;14820;48.682;8.890;2023-04-03T10:27:39;3.85;;;2.35;;
26223;SDS011;14820;48.682;8.890;2023-04-03T10:47:21;3.40;;;2.25;;
26223;SDS011;14820;48.682;8.890;2023-04-03T10:50:00;3.95;;;2.20;;
26223;SDS011;14820;48.682;8.890;2023-04-03T10:53:20;7.18;;;2.35;;
26223;SDS011;14820;48.682;8.890;2023-04-03T10:55:46;3.05;;;2.00;;
26223;SDS011;14820;48.682;8.890;2023-04-03T11:00:59;5.00;;;2.40;;
26223;SDS011;14820;48.682;8.890;2023-04-03T11:03:44;2.88;;;2.20;;
26223;SDS011;14820;48.682;8.890;2023-04-03T11:06:15;3.78;;;2.13;;
26223;SDS011;14820;48.682;8.890;2023-04-03T11:11:35;5.40;;;2.25;;
26223;SDS011;14820;48.682;8.890;2023-04-03T11:14:05;4.90;;;2.30;;
26223;SDS011;14820;48.682;8.890;2023-04-03T11:16:42;2.90;;;1.70;;
26223;SDS011;14820;48.682;8.890;2023-04-03T11:19:14;3.83;;;2.20;;
26223;SDS011;14820;48.682;8.890;2023-04-03T11:21:54;3.20;;;2.03;;
26223;SDS011;14820;48.682;8.890;2023-04-03T11:24:27;4.72;;;2.15;;
26223;SDS011;14820;48.682;8.890;2023-04-03T11:26:56;5.00;;;2.08;;
26223;SDS011;14820;48.682;8.890;2023-04-03T11:29:24;5.30;;;2.40;;
26223;SDS011;14820;48.682;8.890;2023-04-03T11:34:45;3.42;;;1.98;;
26223;SDS011;14820;48.682;8.890;2023-04-03T11:40:26;11.35;;;1.98;;
26223;SDS011;14820;48.682;8.890;2023-04-03T11:50:44;3.10;;;2.20;;
26223;SDS011;14820;48.682;8.890;2023-04-03T12:16:08;3.72;;;1.90;;
26223;SDS011;14820;48.682;8.890;2023-04-03T12:23:58;3.90;;;2.08;;
26223;SDS011;14820;48.682;8.890;2023-04-03T12:46:17;4.10;;;2.10;;
26223;SDS011;14820;48.682;8.890;2023-04-03T12:51:18;3.42;;;1.80;;
26223;SDS011;14820;48.682;8.890;2023-04-03T12:56:21;5.00;;;1.70;;
26223;SDS011;14820;48.682;8.890;2023-04-03T12:58:55;7.07;;;2.00;;
26223;SDS011;14820;48.682;8.890;2023-04-03T13:01:42;4.65;;;2.33;;
26223;SDS011;14820;48.682;8.890;2023-04-03T13:04:09;3.70;;;1.70;;
26223;SDS011;14820;48.682;8.890;2023-04-03T13:06:41;3.47;;;1.80;;
26223;SDS011;14820;48.682;8.890;2023-04-03T13:09:41;4.30;;;1.98;;
26223;SDS011;14820;48.682;8.890;2023-04-03T13:12:09;4.28;;;1.95;;
26223;SDS011;14820;48.682;8.890;2023-04-03T13:14:38;3.67;;;1.88;;
26223;SDS011;14820;48.682;8.890;2023-04-03T13:17:11;4.40;;;1.95;;
26223;SDS011;14820;48.682;8.890;2023-04-03T13:19:40;4.15;;;1.83;;
26223;SDS011;14820;48.682;8.890;2023-04-03T13:24:54;3.63;;;1.80;;
26223;SDS011;14820;48.682;8.890;2023-04-03T13:27:23;4.00;;;1.92;;
26223;SDS011;14820;48.682;8.890;2023-04-03T13:29:49;5.78;;;1.75;;
26223;SDS011;14820;48.682;8.890;2023-04-03T13:32:22;5.25;;;2.13;;
26223;SDS011;14820;48.682;8.890;2023-04-03T13:34:51;2.80;;;1.75;;
26223;SDS011;14820;48.682;8.890;2023-04-03T13:37:27;6.93;;;2.00;;
26223;SDS011;14820;48.682;8.890;2023-04-03T13:42:36;4.13;;;2.60;;
26223;SDS011;14820;48.682;8.890;2023-04-03T13:45:11;4.03;;;2.00;;
26223;SDS011;14820;48.682;8.890;2023-04-03T13:47:52;8.40;;;1.92;;
26223;SDS011;14820;48.682;8.890;2023-04-03T13:50:50;5.78;;;2.00;;
26223;SDS011;14820;48.682;8.890;2023-04-03T13:53:18;3.90;;;1.92;;
26223;SDS011;14820;48.682;8.890;2023-04-03T13:55:55;5.15;;;2.45;;
26223;SDS011;14820;48.682;8.890;2023-04-03T13:58:30;4.40;;;2.20;;
26223;SDS011;14820;48.682;8.890;2023-04-03T14:06:13;5.82;;;2.85;;
26223;SDS011;14820;48.682;8.890;2023-04-03T14:08:44;10.40;;;4.00;;
26223;SDS011;14820;48.682;8.890;2023-04-03T14:11:21;4.82;;;2.40;;
26223;SDS011;14820;48.682;8.890;2023-04-03T14:13:56;7.32;;;3.42;;
26223;SDS011;14820;48.682;8.890;2023-04-03T14:16:30;14.73;;;5.22;;
26223;SDS011;14820;48.682;8.890;2023-04-03T14:18:57;11.32;;;2.00;;
26223;SDS011;14820;48.682;8.890;2023-04-03T14:21:23;3.75;;;2.20;;
26223;SDS011;14820;48.682;8.890;2023-04-03T14:23:49;6.78;;;2.42;;
26223;SDS011;14820;48.682;8.890;2023-04-03T14:26:16;6.13;;;2.47;;
26223;SDS011;14820;48.682;8.890;2023-04-03T14:28:48;3.67;;;2.15;;
26223;SDS011;14820;48.682;8.890;2023-04-03T14:31:18;3.58;;;1.80;;
26223;SDS011;14820;48.682;8.890;2023-04-03T14:33:45;7.18;;;2.22;;
26223;SDS011;14820;48.682;8.890;2023-04-03T14:36:16;5.25;;;2.20;;
26223;SDS011;14820;48.682;8.890;2023-04-03T14:38:46;4.07;;;1.88;;
26223;SDS011;14820;48.682;8.890;2023-04-03T14:41:13;4.80;;;1.90;;
26223;SDS011;14820;48.682;8.890;2023-04-03T14:43:41;2.72;;;1.92;;
26223;SDS011;14820;48.682;8.890;2023-04-03T14:46:15;5.40;;;2.20;;
26223;SDS011;14820;48.682;8.890;2023-04-03T14:48:43;4.40;;;1.92;;
26223;SDS011;14820;48.682;8.890;2023-04-03T14:51:13;3.40;;;1.95;;
26223;SDS011;14820;48.682;8.890;2023-04-03T14:53:40;3.42;;;1.80;;
26223;SDS011;14820;48.682;8.890;2023-04-03T14:56:27;3.47;;;1.65;;
26223;SDS011;14820;48.682;8.890;2023-04-03T14:58:57;4.72;;;1.80;;
26223;SDS011;14820;48.682;8.890;2023-04-03T15:01:28;6.85;;;2.53;;
26223;SDS011;14820;48.682;8.890;2023-04-03T15:03:57;5.72;;;2.05;;
26223;SDS011;14820;48.682;8.890;2023-04-03T15:06:26;3.80;;;2.20;;
26223;SDS011;14820;48.682;8.890;2023-04-03T15:08:51;4.47;;;1.95;;
26223;SDS011;14820;48.682;8.890;2023-04-03T15:11:17;2.80;;;1.95;;
26223;SDS011;14820;48.682;8.890;2023-04-03T15:13:43;4.65;;;2.05;;
26223;SDS011;14820;48.682;8.890;2023-04-03T15:16:16;5.22;;;3.30;;
26223;SDS011;14820;48.682;8.890;2023-04-03T15:18:47;4.85;;;2.90;;
26223;SDS011;14820;48.682;8.890;2023-04-03T15:21:13;6.57;;;2.22;;
26223;SDS011;14820;48.682;8.890;2023-04-03T15:23:40;3.88;;;1.77;;
26223;SDS011;14820;48.682;8.890;2023-04-03T15:26:07;3.90;;;2.15;;
26223;SDS011;14820;48.682;8.890;2023-04-03T15:28:37;8.15;;;1.90;;
26223;SDS011;14820;48.682;8.890;2023-04-03T15:31:07;3.45;;;1.92;;
26223;SDS011;14820;48.682;8.890;2023-04-03T15:33:34;2.53;;;1.60;;
26223;SDS011;14820;48.682;8.890;2023-04-03T15:36:00;5.15;;;1.95;;
26223;SDS011;14820;48.682;8.890;2023-04-03T15:38:27;3.88;;;1.73;;
26223;SDS011;14820;48.682;8.890;2023-04-03T15:40:54;4.22;;;1.90;;
26223;SDS011;14820;48.682;8.890;2023-04-03T15:43:23;4.80;;;2.20;;
26223;SDS011;14820;48.682;8.890;2023-04-03T15:45:49;5.15;;;2.30;;
26223;SDS011;14820;48.682;8.890;2023-04-03T15:48:15;4.30;;;2.00;;
26223;SDS011;14820;48.682;8.890;2023-04-03T15:50:47;2.92;;;2.10;;
26223;SDS011;14820;48.682;8.890;2023-04-03T15:53:13;3.05;;;1.98;;
26223;SDS011;14820;48.682;8.890;2023-04-03T15:55:39;5.50;;;2.30;;
26223;SDS011;14820;48.682;8.890;2023-04-03T15:58:06;3.88;;;2.03;;
26223;SDS011;14820;48.682;8.890;2023-04-03T16:00:32;3.75;;;2.10;;
26223;SDS011;14820;48.682;8.890;2023-04-03T16:03:05;3.85;;;1.70;;
26223;SDS011;14820;48.682;8.890;2023-04-03T16:05:34;4.72;;;2.15;;
26223;SDS011;14820;48.682;8.890;2023-04-03T16:08:01;6.05;;;2.30;;
26223;SDS011;14820;48.682;8.890;2023-04-03T16:10:28;2.97;;;2.00;;
26223;SDS011;14820;48.682;8.890;2023-04-03T16:12:54;6.70;;;2.40;;
26223;SDS011;14820;48.682;8.890;2023-04-03T16:15:20;3.53;;;2.05;;
26223;SDS011;14820;48.682;8.890;2023-04-03T16:17:46;6.05;;;2.00;;
26223;SDS011;14820;48.682;8.890;2023-04-03T16:20:13;4.30;;;2.05;;
26223;SDS011;14820;48.682;8.890;2023-04-03T16:22:40;2.95;;;1.67;;
26223;SDS011;14820;48.682;8.890;2023-04-03T16:25:07;3.42;;;1.80;;
26223;SDS011;14820;48.682;8.890;2023-04-03T16:27:33;4.85;;;2.00;;
26223;SDS011;14820;48.682;8.890;2023-04-03T16:30:00;3.28;;;1.60;;
26223;SDS011;14820;48.682;8.890;2023-04-03T16:32:26;3.15;;;1.98;;
26223;SDS011;14820;48.682;8.890;2023-04-03T16:34:55;4.00;;;2.05;;
26223;SDS011;14820;48.682;8.890;2023-04-03T16:37:21;3.13;;;1.77;;
26223;SDS011;14820;48.682;8.890;2023-04-03T16:39:47;2.63;;;1.80;;
26223;SDS011;14820;48.682;8.890;2023-04-03T16:42:12;3.88;;;2.33;;
26223;SDS011;14820;48.682;8.890;2023-04-03T16:44:38;3.80;;;1.90;;
26223;SDS011;14820;48.682;8.890;2023-04-03T16:47:05;2.92;;;1.67;;
26223;SDS011;14820;48.682;8.890;2023-04-03T16:49:32;4.20;;;1.73;;
26223;SDS011;14820;48.682;8.890;2023-04-03T16:51:59;2.80;;;1.65;;
26223;SDS011;14820;48.682;8.890;2023-04-03T16:54:29;2.58;;;1.70;;
26223;SDS011;14820;48.682;8.890;2023-04-03T16:56:56;3.83;;;1.75;;
26223;SDS011;14820;48.682;8.890;2023-04-03T16:59:21;7.05;;;2.20;;
26223;SDS011;14820;48.682;8.890;2023-04-03T17:01:47;5.72;;;1.90;;
26223;SDS011;14820;48.682;8.890;2023-04-03T17:04:13;4.50;;;1.83;;
26223;SDS011;14820;48.682;8.890;2023-04-03T17:06:39;3.58;;;2.00;;
26223;SDS011;14820;48.682;8.890;2023-04-03T17:09:05;3.78;;;1.73;;
26223;SDS011;14820;48.682;8.890;2023-04-03T17:11:32;3.75;;;1.73;;
26223;SDS011;14820;48.682;8.890;2023-04-03T17:13:58;3.92;;;2.00;;
26223;SDS011;14820;48.682;8.890;2023-04-03T17:16:23;2.05;;;1.58;;
26223;SDS011;14820;48.682;8.890;2023-04-03T17:18:53;3.78;;;1.85;;
26223;SDS011;14820;48.682;8.890;2023-04-03T17:21:25;3.90;;;1.75;;
26223;SDS011;14820;48.682;8.890;2023-04-03T17:23:54;5.10;;;1.95;;
26223;SDS011;14820;48.682;8.890;2023-04-03T17:26:23;3.25;;;1.90;;
26223;SDS011;14820;48.682;8.890;2023-04-03T17:28:50;3.60;;;2.20;;
26223;SDS011;14820;48.682;8.890;2023-04-03T17:31:16;5.93;;;2.50;;